createdAt,value
2018-06-07T00:01:05.693Z,8.10
2018-06-07T00:03:34.029Z,8.20
2018-06-07T00:06:02.368Z,8.00
2018-06-07T00:08:30.761Z,8.20
2018-06-07T00:10:59.417Z,7.73
2018-06-07T00:13:27.753Z,7.50
2018-06-07T00:15:56.694Z,8.33
2018-06-07T00:18:25.105Z,7.80
2018-06-07T00:20:53.581Z,7.50
2018-06-07T00:23:22.040Z,7.73
2018-06-07T00:25:50.360Z,6.80
2018-06-07T00:28:18.796Z,7.63
2018-06-07T00:30:46.900Z,7.63
2018-06-07T00:33:15.324Z,7.37
2018-06-07T00:35:48.331Z,6.67
2018-06-07T00:38:17.217Z,7.03
2018-06-07T00:40:45.620Z,6.87
2018-06-07T00:43:13.946Z,6.53
2018-06-07T00:45:42.340Z,7.20
2018-06-07T00:48:11.429Z,6.73
2018-06-07T00:50:39.848Z,6.53
2018-06-07T00:53:09.265Z,6.57
2018-06-07T00:55:37.650Z,6.40
2018-06-07T00:58:05.998Z,6.00
2018-06-07T01:00:34.956Z,6.40
2018-06-07T01:03:03.330Z,6.33
2018-06-07T01:05:32.212Z,6.00
2018-06-07T01:08:00.572Z,6.00
2018-06-07T01:10:29.221Z,5.70
2018-06-07T01:12:57.639Z,5.57
2018-06-07T01:15:26.096Z,5.73
2018-06-07T01:17:54.474Z,5.70
2018-06-07T01:20:22.912Z,6.00
2018-06-07T01:22:51.350Z,5.77
2018-06-07T01:25:19.789Z,5.97
2018-06-07T01:27:48.189Z,5.00
2018-06-07T01:30:30.529Z,6.33
2018-06-07T01:33:26.695Z,6.10
2018-06-07T01:35:56.684Z,6.00
2018-06-07T01:39:06.891Z,6.00
2018-06-07T01:41:35.289Z,6.30
2018-06-07T01:44:03.806Z,7.40
2018-06-07T01:46:32.467Z,6.20
2018-06-07T01:49:00.910Z,6.57
2018-06-07T01:51:29.085Z,7.20
2018-06-07T01:53:57.503Z,7.70
2018-06-07T01:56:25.876Z,8.37
2018-06-07T01:58:54.987Z,7.83
2018-06-07T02:01:23.467Z,7.43
2018-06-07T02:03:51.809Z,6.93
2018-06-07T02:06:20.586Z,7.33
2018-06-07T02:08:48.913Z,6.70
2018-06-07T02:11:17.291Z,7.37
2018-06-07T02:13:45.741Z,8.33
2018-06-07T02:16:14.110Z,9.43
2018-06-07T02:18:42.502Z,9.00
2018-06-07T02:21:10.861Z,9.23
2018-06-07T02:23:41.077Z,10.30
2018-06-07T02:26:09.441Z,10.77
2018-06-07T02:28:38.117Z,12.10
2018-06-07T02:31:06.575Z,12.13
2018-06-07T02:33:34.901Z,13.07
2018-06-07T02:36:03.900Z,12.70
2018-06-07T02:38:32.205Z,13.73
2018-06-07T02:41:00.617Z,13.67
2018-06-07T02:43:29.042Z,12.87
2018-06-07T02:45:57.420Z,12.33
2018-06-07T02:48:25.748Z,13.40
2018-06-07T02:50:54.229Z,13.23
2018-06-07T02:53:22.606Z,15.87
2018-06-07T02:55:51.024Z,14.87
2018-06-07T02:58:19.438Z,16.30
2018-06-07T03:00:47.787Z,15.03
2018-06-07T03:03:16.197Z,18.57
2018-06-07T03:05:44.566Z,19.47
2018-06-07T03:08:13.760Z,16.43
2018-06-07T03:10:42.148Z,20.93
2018-06-07T03:13:10.636Z,19.83
2018-06-07T03:15:39.012Z,20.53
2018-06-07T03:18:07.414Z,17.80
2018-06-07T03:20:35.777Z,21.27
2018-06-07T03:23:04.174Z,22.80
2018-06-07T03:25:32.499Z,19.43
2018-06-07T03:28:00.585Z,18.90
2018-06-07T03:30:28.985Z,21.50
2018-06-07T03:32:57.308Z,19.20
2018-06-07T03:35:26.200Z,22.83
2018-06-07T03:37:54.555Z,22.87
2018-06-07T03:40:22.935Z,22.13
2018-06-07T03:42:51.271Z,23.40
2018-06-07T03:45:19.661Z,19.37
2018-06-07T03:47:48.010Z,21.00
2018-06-07T03:50:16.402Z,17.17
2018-06-07T03:52:44.844Z,20.43
2018-06-07T03:55:13.272Z,21.37
2018-06-07T03:57:41.645Z,23.87
2018-06-07T04:00:10.041Z,19.17
2018-06-07T04:02:38.472Z,22.37
2018-06-07T04:05:06.932Z,21.33
2018-06-07T04:07:36.139Z,26.37
2018-06-07T04:10:04.681Z,27.90
2018-06-07T04:12:33.920Z,25.80
2018-06-07T04:15:03.806Z,26.10
2018-06-07T04:17:32.189Z,31.60
2018-06-07T04:20:01.252Z,28.30
2018-06-07T04:22:29.698Z,25.30
2018-06-07T04:24:58.092Z,26.33
2018-06-07T04:27:26.490Z,27.00
2018-06-07T04:29:54.839Z,25.67
2018-06-07T04:32:23.233Z,23.47
2018-06-07T04:34:52.452Z,30.63
2018-06-07T04:37:20.893Z,29.73
2018-06-07T04:39:49.320Z,31.40
2018-06-07T04:42:17.792Z,27.70
2018-06-07T04:44:46.129Z,28.33
2018-06-07T04:47:14.512Z,32.00
2018-06-07T04:49:42.946Z,29.70
2018-06-07T04:52:11.318Z,25.23
2018-06-07T04:54:39.702Z,30.63
2018-06-07T04:57:08.126Z,23.20
2018-06-07T04:59:36.547Z,24.43
2018-06-07T05:02:04.971Z,22.57
2018-06-07T05:04:33.346Z,24.10
2018-06-07T05:07:01.712Z,22.90
2018-06-07T05:09:30.120Z,21.87
2018-06-07T05:11:58.540Z,24.03
2018-06-07T05:14:26.968Z,23.17
2018-06-07T05:16:55.312Z,21.10
2018-06-07T05:19:23.752Z,21.60
2018-06-07T05:21:52.132Z,20.77
2018-06-07T05:24:20.547Z,24.83
2018-06-07T05:26:48.883Z,28.40
2018-06-07T05:29:17.342Z,24.17
2018-06-07T05:31:46.004Z,28.07
2018-06-07T05:34:15.232Z,27.23
2018-06-07T05:36:43.612Z,40.37
2018-06-07T05:39:12.236Z,26.60
2018-06-07T05:41:41.380Z,28.67
2018-06-07T05:44:09.822Z,33.13
2018-06-07T05:46:38.190Z,29.23
2018-06-07T05:49:06.644Z,31.10
2018-06-07T05:51:35.186Z,31.87
2018-06-07T05:54:03.624Z,35.77
2018-06-07T05:56:32.049Z,32.53
2018-06-07T05:59:00.398Z,30.87
2018-06-07T06:01:28.773Z,35.47
2018-06-07T06:03:58.045Z,34.23
2018-06-07T06:06:26.476Z,31.77
2018-06-07T06:08:54.845Z,31.57
2018-06-07T06:11:23.292Z,36.13
2018-06-07T06:13:51.567Z,34.70
2018-06-07T06:16:20.017Z,32.23
2018-06-07T06:18:48.428Z,35.80
2018-06-07T06:21:16.543Z,36.13
2018-06-07T06:23:44.928Z,34.13
2018-06-07T06:26:13.324Z,38.30
2018-06-07T06:28:41.675Z,46.77
2018-06-07T06:31:10.121Z,35.17
2018-06-07T06:33:38.526Z,36.90
2018-06-07T06:36:07.476Z,34.87
2018-06-07T06:38:39.159Z,32.10
2018-06-07T06:41:07.529Z,35.83
2018-06-07T06:43:36.021Z,34.33
2018-06-07T06:46:04.841Z,34.10
2018-06-07T06:48:33.184Z,38.37
2018-06-07T06:51:01.601Z,36.50
2018-06-07T06:53:29.978Z,40.47
2018-06-07T06:55:58.337Z,36.63
2018-06-07T06:58:26.751Z,35.43
2018-06-07T07:00:55.137Z,39.03
2018-06-07T07:03:23.928Z,36.30
2018-06-07T07:05:52.282Z,42.33
2018-06-07T07:08:20.638Z,44.73
2018-06-07T07:10:49.054Z,45.93
2018-06-07T07:13:17.448Z,43.73
2018-06-07T07:15:45.907Z,43.40
2018-06-07T07:18:14.248Z,39.27
2018-06-07T07:20:42.659Z,42.57
2018-06-07T07:23:11.066Z,33.40
2018-06-07T07:25:39.474Z,40.60
2018-06-07T07:28:07.850Z,46.83
2018-06-07T07:30:36.290Z,41.80
2018-06-07T07:33:04.678Z,41.43
2018-06-07T07:35:33.095Z,37.53
2018-06-07T07:38:01.166Z,44.03
2018-06-07T07:40:29.564Z,41.20
2018-06-07T07:42:57.917Z,43.53
2018-06-07T07:45:26.421Z,42.23
2018-06-07T07:47:54.778Z,39.27
2018-06-07T07:50:22.881Z,35.90
2018-06-07T07:52:51.463Z,31.60
2018-06-07T07:55:19.852Z,25.03
2018-06-07T07:57:48.225Z,25.63
2018-06-07T08:00:16.577Z,15.77
2018-06-07T08:02:44.709Z,20.60
2018-06-07T08:05:13.338Z,18.77
2018-06-07T08:07:41.819Z,18.50
2018-06-07T08:10:10.251Z,17.07
2018-06-07T08:12:38.698Z,23.77
2018-06-07T08:15:07.163Z,17.47
2018-06-07T08:17:35.581Z,25.30
2018-06-07T08:20:04.495Z,25.13
2018-06-07T08:22:32.965Z,22.90
2018-06-07T08:25:01.551Z,21.47
2018-06-07T08:27:29.957Z,21.47
2018-06-07T08:29:58.324Z,20.10
2018-06-07T08:32:26.719Z,23.00
2018-06-07T08:34:55.116Z,19.47
2018-06-07T08:37:23.525Z,19.73
2018-06-07T08:39:51.909Z,23.00
2018-06-07T08:42:20.299Z,22.53
2018-06-07T08:44:48.718Z,20.10
2018-06-07T08:47:17.037Z,24.63
2018-06-07T08:49:45.599Z,20.77
2018-06-07T08:52:13.996Z,24.20
2018-06-07T08:54:47.741Z,19.07
2018-06-07T08:57:16.641Z,23.47
2018-06-07T08:59:45.031Z,25.83
2018-06-07T09:02:13.142Z,22.83
2018-06-07T09:04:41.591Z,24.83
2018-06-07T09:07:10.089Z,21.83
2018-06-07T09:09:38.389Z,26.83
2018-06-07T09:12:06.761Z,23.70
2018-06-07T09:14:35.204Z,27.57
2018-06-07T09:17:03.663Z,25.87
2018-06-07T09:19:32.157Z,26.47
2018-06-07T09:22:00.568Z,25.20
2018-06-07T09:24:28.989Z,26.40
2018-06-07T09:26:57.385Z,30.57
2018-06-07T09:29:25.784Z,30.37
2018-06-07T09:31:54.244Z,25.57
2018-06-07T09:34:22.690Z,29.33
2018-06-07T09:36:51.146Z,30.27
2018-06-07T09:39:19.559Z,22.77
2018-06-07T09:41:48.097Z,28.13
2018-06-07T09:44:16.466Z,27.23
2018-06-07T09:46:44.901Z,25.30
2018-06-07T09:49:13.268Z,24.03
2018-06-07T09:51:41.664Z,27.00
2018-06-07T09:54:10.306Z,31.20
2018-06-07T09:56:38.816Z,24.90
2018-06-07T09:59:07.210Z,21.37
2018-06-07T10:01:35.591Z,22.07
2018-06-07T10:04:04.018Z,23.53
2018-06-07T10:06:32.408Z,26.90
2018-06-07T10:09:00.836Z,28.80
2018-06-07T10:11:29.228Z,27.37
2018-06-07T10:13:57.619Z,24.13
2018-06-07T10:16:25.741Z,21.83
2018-06-07T10:18:54.129Z,24.57
2018-06-07T10:21:22.489Z,26.00
2018-06-07T10:23:50.921Z,26.33
2018-06-07T10:26:18.989Z,19.63
2018-06-07T10:28:47.419Z,20.17
2018-06-07T10:31:15.801Z,20.73
2018-06-07T10:33:44.195Z,19.17
2018-06-07T10:36:12.572Z,24.73
2018-06-07T10:38:41.443Z,26.77
2018-06-07T10:41:09.892Z,22.67
2018-06-07T10:43:38.201Z,17.43
2018-06-07T10:46:06.601Z,23.37
2018-06-07T10:48:34.963Z,22.77
2018-06-07T10:51:03.371Z,23.87
2018-06-07T10:53:31.746Z,18.67
2018-06-07T10:56:00.168Z,17.47
2018-06-07T10:58:28.507Z,18.00
2018-06-07T11:00:57.147Z,18.80
2018-06-07T11:03:26.108Z,17.50
2018-06-07T11:05:54.493Z,13.43
2018-06-07T11:08:22.583Z,12.73
2018-06-07T11:10:51.025Z,12.45
2018-06-07T11:13:19.399Z,13.83
2018-06-07T11:15:47.824Z,13.32
2018-06-07T11:18:16.180Z,19.15
2018-06-07T11:20:44.565Z,12.75
2018-06-07T11:23:12.652Z,9.55
2018-06-07T11:25:41.045Z,9.50
2018-06-07T11:28:09.459Z,9.53
2018-06-07T11:30:37.884Z,10.53
2018-06-07T11:33:06.320Z,9.75
2018-06-07T11:35:34.688Z,9.23
2018-06-07T11:38:03.112Z,8.88
2018-06-07T11:40:31.137Z,8.25
2018-06-07T11:42:59.535Z,9.58
2018-06-07T11:45:27.914Z,9.28
2018-06-07T11:47:56.311Z,9.73
2018-06-07T11:50:24.723Z,10.15
2018-06-07T11:52:53.128Z,11.15
2018-06-07T11:55:21.508Z,9.98
2018-06-07T11:57:49.980Z,11.75
2018-06-07T12:00:19.517Z,10.53
2018-06-07T12:02:47.937Z,10.10
2018-06-07T12:05:16.757Z,9.48
2018-06-07T12:07:45.154Z,8.93
2018-06-07T12:10:13.804Z,8.40
2018-06-07T12:12:42.165Z,7.47
2018-06-07T12:15:10.762Z,7.05
2018-06-07T12:17:39.133Z,8.88
2018-06-07T12:20:08.571Z,7.17
2018-06-07T12:22:36.951Z,7.62
2018-06-07T12:25:05.951Z,7.95
2018-06-07T12:27:34.313Z,7.25
2018-06-07T12:30:02.743Z,8.53
2018-06-07T12:32:31.167Z,6.60
2018-06-07T12:35:00.482Z,7.03
2018-06-07T12:37:29.189Z,7.20
2018-06-07T12:39:57.716Z,7.08
2018-06-07T12:42:26.259Z,7.30
2018-06-07T12:44:54.666Z,7.90
2018-06-07T12:47:23.015Z,7.60
2018-06-07T12:49:51.401Z,8.95
2018-06-07T12:52:19.753Z,8.90
2018-06-07T12:54:48.166Z,8.10
2018-06-07T12:57:16.521Z,9.88
2018-06-07T12:59:45.009Z,9.98
2018-06-07T13:02:13.373Z,9.95
2018-06-07T13:04:41.703Z,9.40
2018-06-07T13:07:10.119Z,9.75
2018-06-07T13:09:38.987Z,9.55
2018-06-07T13:12:07.390Z,8.95
2018-06-07T13:14:35.778Z,11.12
2018-06-07T13:17:04.256Z,10.63
2018-06-07T13:19:32.633Z,9.58
2018-06-07T13:22:01.523Z,9.75
2018-06-07T13:24:29.913Z,9.20
2018-06-07T13:26:58.814Z,9.50
2018-06-07T13:29:27.160Z,10.82
2018-06-07T13:31:56.430Z,10.78
2018-06-07T13:34:25.150Z,10.25
2018-06-07T13:36:53.494Z,9.55
2018-06-07T13:39:21.872Z,10.35
2018-06-07T13:41:50.324Z,9.30
2018-06-07T13:44:18.717Z,12.70
2018-06-07T13:46:47.136Z,12.35
2018-06-07T13:49:15.552Z,14.47
2018-06-07T13:51:44.154Z,13.43
2018-06-07T13:54:12.515Z,14.45
2018-06-07T13:56:41.097Z,11.93
2018-06-07T13:59:10.022Z,13.30
2018-06-07T14:01:38.454Z,12.23
2018-06-07T14:04:06.895Z,12.10
2018-06-07T14:06:35.251Z,13.18
2018-06-07T14:09:06.566Z,11.85
2018-06-07T14:11:34.988Z,12.35
2018-06-07T14:14:03.821Z,11.35
2018-06-07T14:16:32.293Z,12.53
2018-06-07T14:19:00.733Z,11.38
2018-06-07T14:21:29.133Z,10.68
2018-06-07T14:23:57.542Z,10.55
2018-06-07T14:26:25.939Z,11.08
2018-06-07T14:28:54.333Z,10.55
2018-06-07T14:31:22.697Z,10.18
2018-06-07T14:33:51.123Z,10.70
2018-06-07T14:36:19.516Z,7.60
2018-06-07T14:38:47.945Z,7.83
2018-06-07T14:41:16.344Z,7.60
2018-06-07T14:43:44.717Z,8.43
2018-06-07T14:46:13.157Z,8.50
2018-06-07T14:48:41.523Z,7.53
2018-06-07T14:51:10.127Z,7.42
2018-06-07T14:53:38.639Z,8.78
2018-06-07T14:56:07.055Z,8.30
2018-06-07T14:58:35.410Z,7.87
2018-06-07T15:01:03.769Z,8.65
2018-06-07T15:03:32.215Z,7.28
2018-06-07T15:06:00.661Z,8.50
2018-06-07T15:08:29.053Z,7.75
2018-06-07T15:10:57.424Z,7.83
2018-06-07T15:13:25.829Z,7.97
2018-06-07T15:15:54.300Z,8.43
2018-06-07T15:18:22.698Z,8.70
2018-06-07T15:20:51.078Z,7.60
2018-06-07T15:23:19.475Z,7.87
2018-06-07T15:25:47.829Z,8.20
2018-06-07T15:28:16.222Z,8.15
2018-06-07T15:30:44.575Z,7.15
2018-06-07T15:33:12.964Z,8.55
2018-06-07T15:35:41.658Z,8.08
2018-06-07T15:38:10.091Z,8.00
2018-06-07T15:40:38.551Z,7.50
2018-06-07T15:43:06.993Z,7.83
2018-06-07T15:45:35.350Z,7.15
2018-06-07T15:48:03.761Z,8.00
2018-06-07T15:50:32.212Z,7.30
2018-06-07T15:53:00.568Z,7.33
2018-06-07T15:55:29.020Z,7.85
2018-06-07T15:57:57.405Z,7.45
2018-06-07T16:00:25.787Z,7.50
2018-06-07T16:02:54.166Z,7.70
2018-06-07T16:05:22.588Z,8.45
2018-06-07T16:07:50.952Z,7.90
2018-06-07T16:10:19.429Z,7.55
2018-06-07T16:12:47.785Z,8.50
2018-06-07T16:15:16.154Z,7.92
2018-06-07T16:17:44.718Z,9.08
2018-06-07T16:20:13.142Z,7.60
2018-06-07T16:22:41.519Z,11.12
2018-06-07T16:25:09.905Z,12.95
2018-06-07T16:27:38.257Z,12.23
2018-06-07T16:30:06.333Z,12.30
2018-06-07T16:32:34.703Z,11.43
2018-06-07T16:35:03.091Z,9.75
2018-06-07T16:37:31.477Z,9.68
2018-06-07T16:39:59.618Z,10.88
2018-06-07T16:42:27.968Z,9.98
2018-06-07T16:44:56.340Z,9.58
2018-06-07T16:47:24.769Z,10.82
2018-06-07T16:49:53.143Z,11.33
2018-06-07T16:52:21.549Z,12.78
2018-06-07T16:54:49.604Z,12.85
2018-06-07T16:57:17.953Z,12.73
2018-06-07T16:59:46.304Z,13.72
2018-06-07T17:02:14.784Z,13.40
2018-06-07T17:04:43.160Z,13.18
2018-06-07T17:07:11.510Z,13.85
2018-06-07T17:09:39.577Z,14.55
2018-06-07T17:12:07.666Z,12.95
2018-06-07T17:14:36.005Z,12.40
2018-06-07T17:17:04.512Z,12.15
2018-06-07T17:19:32.858Z,11.73
2018-06-07T17:22:01.368Z,12.03
2018-06-07T17:24:29.704Z,11.45
2018-06-07T17:26:58.126Z,11.35
2018-06-07T17:29:26.507Z,10.82
2018-06-07T17:31:55.654Z,12.23
2018-06-07T17:34:24.110Z,10.95
2018-06-07T17:36:52.528Z,11.22
2018-06-07T17:39:20.959Z,10.55
2018-06-07T17:41:49.307Z,10.32
2018-06-07T17:44:17.706Z,11.28
2018-06-07T17:46:46.097Z,10.48
2018-06-07T17:49:14.534Z,9.58
2018-06-07T17:51:42.894Z,9.25
2018-06-07T17:54:11.355Z,9.80
2018-06-07T17:56:39.776Z,9.48
2018-06-07T17:59:08.224Z,9.55
2018-06-07T18:01:36.715Z,9.90
2018-06-07T18:04:05.376Z,10.10
2018-06-07T18:06:33.741Z,10.03
2018-06-07T18:09:02.144Z,9.70
2018-06-07T18:11:30.573Z,10.70
2018-06-07T18:13:58.931Z,10.40
2018-06-07T18:16:27.393Z,9.95
2018-06-07T18:18:55.821Z,9.43
2018-06-07T18:21:24.201Z,10.32
2018-06-07T18:23:52.245Z,10.20
2018-06-07T18:26:20.675Z,10.38
2018-06-07T18:28:49.131Z,11.48
2018-06-07T18:31:17.560Z,11.97
2018-06-07T18:33:45.945Z,10.08
2018-06-07T18:36:14.350Z,10.30
2018-06-07T18:38:42.701Z,10.23
2018-06-07T18:41:11.134Z,9.73
2018-06-07T18:43:39.483Z,10.50
2018-06-07T18:46:07.971Z,11.10
2018-06-07T18:48:36.348Z,10.58
2018-06-07T18:51:04.760Z,9.58
2018-06-07T18:53:33.371Z,9.40
2018-06-07T18:56:02.102Z,9.08
2018-06-07T18:58:30.499Z,9.00
2018-06-07T19:00:58.569Z,9.18
2018-06-07T19:03:27.060Z,9.28
2018-06-07T19:05:56.138Z,9.33
2018-06-07T19:08:24.521Z,9.18
2018-06-07T19:10:52.828Z,9.25
2018-06-07T19:13:26.488Z,12.23
2018-06-07T19:15:55.016Z,10.80
2018-06-07T19:18:23.552Z,10.05
2018-06-07T19:20:56.502Z,10.43
2018-06-07T19:23:24.921Z,11.50
2018-06-07T19:25:58.913Z,10.98
2018-06-07T19:28:27.844Z,11.38
2018-06-07T19:30:56.274Z,11.57
2018-06-07T19:33:30.184Z,12.20
2018-06-07T19:35:58.742Z,11.60
2018-06-07T19:38:27.218Z,12.15
2018-06-07T19:41:01.008Z,12.20
2018-06-07T19:43:29.442Z,11.75
2018-06-07T19:45:58.527Z,11.10
2018-06-07T19:48:26.943Z,12.63
2018-06-07T19:50:55.358Z,12.28
2018-06-07T19:53:23.902Z,13.60
2018-06-07T19:55:52.951Z,13.08
2018-06-07T19:58:21.395Z,12.37
2018-06-07T20:00:50.386Z,12.80
2018-06-07T20:03:18.789Z,12.50
2018-06-07T20:05:47.150Z,13.35
2018-06-07T20:08:15.277Z,13.00
2018-06-07T20:10:45.412Z,13.20
2018-06-07T20:13:13.877Z,12.25
2018-06-07T20:15:42.301Z,12.67
2018-06-07T20:18:14.720Z,13.23
2018-06-07T20:20:43.315Z,13.60
2018-06-07T20:23:11.710Z,13.45
2018-06-07T20:25:40.754Z,12.67
2018-06-07T20:28:09.694Z,13.30
2018-06-07T20:30:38.385Z,13.43
2018-06-07T20:33:07.573Z,13.57
2018-06-07T20:35:39.545Z,13.43
2018-06-07T20:38:09.841Z,13.23
2018-06-07T20:40:38.345Z,14.23
2018-06-07T20:43:08.067Z,13.73
2018-06-07T20:45:36.295Z,13.83
2018-06-07T20:48:04.669Z,14.07
2018-06-07T20:50:33.700Z,13.93
2018-06-07T20:53:02.472Z,15.10
2018-06-07T20:55:30.932Z,13.43
2018-06-07T20:57:59.399Z,15.20
2018-06-07T21:00:27.922Z,14.43
2018-06-07T21:02:58.415Z,13.70
2018-06-07T21:05:26.837Z,14.60
2018-06-07T21:07:54.936Z,14.17
2018-06-07T21:10:23.056Z,14.00
2018-06-07T21:12:51.529Z,13.83
2018-06-07T21:15:19.926Z,13.63
2018-06-07T21:17:48.329Z,14.37
2018-06-07T21:20:16.746Z,14.43
2018-06-07T21:22:45.154Z,15.13
2018-06-07T21:25:13.818Z,15.50
2018-06-07T21:27:42.294Z,14.37
2018-06-07T21:30:11.544Z,14.40
2018-06-07T21:32:40.220Z,13.97
2018-06-07T21:35:08.785Z,14.17
2018-06-07T21:37:37.140Z,15.63
2018-06-07T21:40:05.583Z,14.00
2018-06-07T21:42:34.023Z,13.37
2018-06-07T21:45:02.444Z,13.63
2018-06-07T21:47:30.865Z,13.53
2018-06-07T21:49:59.856Z,13.93
2018-06-07T21:52:28.384Z,13.97
2018-06-07T21:54:56.706Z,13.73
2018-06-07T21:57:25.455Z,12.67
2018-06-07T21:59:53.906Z,13.20
2018-06-07T22:02:22.312Z,12.60
2018-06-07T22:04:50.724Z,12.50
2018-06-07T22:07:19.116Z,13.37
2018-06-07T22:09:47.444Z,12.30
2018-06-07T22:12:15.870Z,13.10
2018-06-07T22:14:44.543Z,13.27
2018-06-07T22:17:12.990Z,14.17
2018-06-07T22:19:41.635Z,13.57
2018-06-07T22:22:10.157Z,11.80
2018-06-07T22:24:39.447Z,21.30
2018-06-07T22:27:07.999Z,23.60
2018-06-07T22:29:36.487Z,24.87
2018-06-07T22:32:04.937Z,32.80
2018-06-07T22:34:33.265Z,33.40
2018-06-07T22:37:01.805Z,32.20
2018-06-07T22:39:30.171Z,40.10
2018-06-07T22:41:58.562Z,49.07
2018-06-07T22:44:27.745Z,38.67
2018-06-07T22:46:55.827Z,25.73
2018-06-07T22:49:24.153Z,33.33
2018-06-07T22:51:52.517Z,40.70
2018-06-07T22:54:20.894Z,33.83
2018-06-07T22:56:49.219Z,39.27
2018-06-07T22:59:17.647Z,46.30
2018-06-07T23:01:46.072Z,48.10
2018-06-07T23:04:14.465Z,40.97
2018-06-07T23:06:42.833Z,47.43
2018-06-07T23:09:11.235Z,44.10
2018-06-07T23:11:39.910Z,57.23
2018-06-07T23:14:08.324Z,52.60
2018-06-07T23:16:36.725Z,60.10
2018-06-07T23:19:05.157Z,63.90
2018-06-07T23:21:33.558Z,61.00
2018-06-07T23:24:01.985Z,59.83
2018-06-07T23:26:30.422Z,44.23
2018-06-07T23:28:58.832Z,47.63
2018-06-07T23:31:27.207Z,43.87
2018-06-07T23:33:55.666Z,52.20
2018-06-07T23:36:24.021Z,51.70
2018-06-07T23:38:52.414Z,59.23
2018-06-07T23:41:20.820Z,57.57
2018-06-07T23:43:49.187Z,59.90
2018-06-07T23:46:18.577Z,56.30
2018-06-07T23:48:46.967Z,55.23
2018-06-07T23:51:15.477Z,49.87
2018-06-07T23:53:43.873Z,53.63
2018-06-07T23:56:12.316Z,60.00
2018-06-07T23:58:40.662Z,73.03
